createdAt,value
2023-05-05T00:00:16.156Z,5.63
2023-05-05T00:03:20.835Z,5.65
2023-05-05T00:06:23.073Z,5.00
2023-05-05T00:09:25.183Z,5.35
2023-05-05T00:12:27.742Z,4.83
2023-05-05T00:15:29.792Z,5.43
2023-05-05T00:18:33.894Z,5.12
2023-05-05T00:21:36.026Z,5.53
2023-05-05T00:24:37.972Z,4.97
2023-05-05T00:27:41.042Z,5.40
2023-05-05T00:30:43.155Z,5.67
2023-05-05T00:33:45.445Z,5.15
2023-05-05T00:36:47.791Z,4.95
2023-05-05T00:39:49.861Z,5.10
2023-05-05T00:42:52.514Z,5.13
2023-05-05T00:46:06.534Z,5.20
2023-05-05T00:49:08.869Z,5.28
2023-05-05T00:52:11.600Z,4.87
2023-05-05T00:55:13.760Z,5.15
2023-05-05T00:58:15.848Z,4.90
2023-05-05T01:01:18.047Z,5.33
2023-05-05T01:04:19.981Z,5.43
2023-05-05T01:07:41.315Z,5.30
2023-05-05T01:10:55.250Z,5.32
2023-05-05T01:14:40.377Z,6.27
2023-05-05T01:17:47.950Z,5.67
2023-05-05T01:21:02.065Z,5.47
2023-05-05T01:24:39.100Z,5.22
2023-05-05T01:27:55.795Z,5.10
2023-05-05T01:31:18.031Z,5.13
2023-05-05T01:34:25.529Z,5.10
2023-05-05T01:37:49.411Z,5.20
2023-05-05T01:41:03.854Z,5.05
2023-05-05T01:44:08.368Z,5.20
2023-05-05T01:47:15.952Z,4.87
2023-05-05T01:50:18.834Z,5.13
2023-05-05T01:53:24.177Z,5.03
2023-05-05T01:56:27.556Z,4.72
2023-05-05T01:59:30.345Z,4.72
2023-05-05T02:02:35.232Z,4.27
2023-05-05T02:05:39.814Z,4.13
2023-05-05T02:08:43.798Z,4.15
2023-05-05T02:11:46.205Z,4.50
2023-05-05T02:14:49.370Z,4.50
2023-05-05T02:17:53.070Z,5.03
2023-05-05T02:20:56.102Z,4.40
2023-05-05T02:23:58.685Z,4.30
2023-05-05T02:27:04.046Z,4.25
2023-05-05T02:30:11.318Z,4.30
2023-05-05T02:33:18.209Z,4.10
2023-05-05T02:36:22.530Z,5.10
2023-05-05T02:39:35.933Z,4.43
2023-05-05T02:42:46.463Z,4.07
2023-05-05T02:45:48.549Z,4.40
2023-05-05T02:48:50.648Z,4.50
2023-05-05T02:51:52.785Z,4.20
2023-05-05T02:54:54.806Z,4.90
2023-05-05T02:58:14.318Z,3.72
2023-05-05T03:01:17.093Z,4.47
2023-05-05T03:04:41.852Z,4.97
2023-05-05T03:08:00.354Z,4.70
2023-05-05T03:11:08.076Z,4.57
2023-05-05T03:14:17.315Z,4.60
2023-05-05T03:17:21.709Z,4.55
2023-05-05T03:20:25.973Z,4.93
2023-05-05T03:23:28.075Z,4.27
2023-05-05T03:26:29.966Z,4.55
2023-05-05T03:29:31.906Z,3.72
2023-05-05T03:32:33.976Z,4.32
2023-05-05T03:35:36.118Z,4.83
2023-05-05T03:38:38.191Z,4.87
2023-05-05T03:41:40.191Z,4.40
2023-05-05T03:44:42.156Z,4.82
2023-05-05T03:47:44.161Z,4.60
2023-05-05T03:50:46.367Z,4.77
2023-05-05T03:53:48.305Z,4.63
2023-05-05T03:56:50.348Z,4.37
2023-05-05T03:59:52.683Z,4.65
2023-05-05T04:02:54.720Z,4.00
2023-05-05T04:05:56.724Z,4.73
2023-05-05T04:08:58.701Z,3.97
2023-05-05T04:12:01.630Z,4.10
2023-05-05T04:15:04.131Z,4.53
2023-05-05T04:18:06.206Z,4.55
2023-05-05T04:21:08.211Z,4.90
2023-05-05T04:24:10.456Z,3.83
2023-05-05T04:27:12.359Z,3.92
2023-05-05T04:30:15.056Z,5.03
2023-05-05T04:33:17.037Z,4.18
2023-05-05T04:36:19.294Z,4.43
2023-05-05T04:39:21.691Z,4.43
2023-05-05T04:42:23.938Z,5.30
2023-05-05T04:45:26.505Z,5.05
2023-05-05T04:48:28.562Z,5.57
2023-05-05T04:51:32.243Z,7.40
2023-05-05T04:54:37.541Z,7.57
2023-05-05T04:57:39.593Z,6.75
2023-05-05T05:00:41.523Z,7.72
2023-05-05T05:03:43.577Z,6.90
2023-05-05T05:06:46.186Z,7.10
2023-05-05T05:09:48.147Z,7.17
2023-05-05T05:12:50.480Z,7.53
2023-05-05T05:15:52.458Z,6.60
2023-05-05T05:18:54.854Z,6.22
2023-05-05T05:21:56.792Z,6.20
2023-05-05T05:24:59.236Z,6.90
2023-05-05T05:28:08.936Z,6.85
2023-05-05T05:31:12.356Z,6.97
2023-05-05T05:34:14.963Z,7.18
2023-05-05T05:37:17.095Z,7.43
2023-05-05T05:40:19.448Z,6.70
2023-05-05T05:43:21.417Z,7.40
2023-05-05T05:46:23.436Z,6.43
2023-05-05T05:49:25.867Z,6.30
2023-05-05T05:52:28.319Z,6.22
2023-05-05T05:55:30.428Z,6.73
2023-05-05T05:58:32.364Z,6.60
2023-05-05T06:01:35.515Z,6.05
2023-05-05T06:04:37.747Z,6.00
2023-05-05T06:07:39.825Z,6.78
2023-05-05T06:10:42.155Z,5.80
2023-05-05T06:13:44.226Z,5.72
2023-05-05T06:16:46.113Z,5.72
2023-05-05T06:19:48.179Z,5.90
2023-05-05T06:22:50.114Z,6.07
2023-05-05T06:25:53.410Z,5.70
2023-05-05T06:28:56.002Z,5.90
2023-05-05T06:31:58.146Z,5.60
2023-05-05T06:35:00.169Z,6.50
2023-05-05T06:38:02.149Z,5.20
2023-05-05T06:41:04.299Z,5.57
2023-05-05T06:44:06.860Z,5.97
2023-05-05T06:47:08.833Z,6.18
2023-05-05T06:50:11.468Z,5.03
2023-05-05T06:53:13.533Z,6.00
2023-05-05T06:56:15.655Z,6.10
2023-05-05T06:59:17.587Z,5.93
2023-05-05T07:02:19.641Z,6.78
2023-05-05T07:05:22.003Z,6.72
2023-05-05T07:08:25.505Z,6.15
2023-05-05T07:11:27.435Z,6.47
2023-05-05T07:14:29.383Z,6.40
2023-05-05T07:17:31.313Z,6.43
2023-05-05T07:20:33.391Z,6.87
2023-05-05T07:23:37.484Z,6.70
2023-05-05T07:26:40.161Z,6.20
2023-05-05T07:29:42.134Z,6.45
2023-05-05T07:32:44.321Z,6.70
2023-05-05T07:35:46.716Z,6.53
2023-05-05T07:38:48.895Z,7.07
2023-05-05T07:41:51.119Z,7.03
2023-05-05T07:44:53.146Z,6.00
2023-05-05T07:47:55.875Z,7.00
2023-05-05T07:50:58.267Z,7.57
2023-05-05T07:54:00.445Z,7.47
2023-05-05T07:57:02.417Z,6.40
2023-05-05T08:00:05.295Z,5.68
2023-05-05T08:03:11.320Z,6.70
2023-05-05T08:06:16.558Z,5.70
2023-05-05T08:09:18.671Z,5.18
2023-05-05T08:12:21.103Z,4.37
2023-05-05T08:15:23.164Z,5.15
2023-05-05T08:21:44.856Z,5.07
2023-05-05T08:24:46.895Z,5.25
2023-05-05T08:27:48.814Z,5.90
2023-05-05T08:30:50.985Z,3.37
2023-05-05T08:33:52.921Z,4.18
2023-05-05T08:36:54.799Z,4.25
2023-05-05T08:39:57.958Z,4.00
2023-05-05T08:43:01.536Z,3.50
2023-05-05T08:46:04.570Z,4.03
2023-05-05T08:49:09.592Z,4.53
2023-05-05T08:52:14.398Z,4.70
2023-05-05T08:55:26.937Z,4.95
2023-05-05T08:58:31.463Z,5.20
2023-05-05T09:01:35.097Z,5.03
2023-05-05T09:04:37.177Z,4.18
2023-05-05T09:07:43.811Z,5.10
2023-05-05T09:10:46.157Z,4.65
2023-05-05T09:17:22.282Z,3.87
2023-05-05T09:20:24.737Z,3.85
2023-05-05T09:23:26.721Z,3.37
2023-05-05T09:26:33.225Z,3.50
2023-05-05T09:29:35.724Z,4.10
2023-05-05T09:32:49.106Z,3.78
2023-05-05T09:35:53.997Z,3.53
2023-05-05T09:39:06.462Z,3.53
2023-05-05T09:42:19.083Z,3.60
2023-05-05T09:45:20.922Z,3.80
2023-05-05T09:48:30.951Z,3.92
2023-05-05T09:51:33.452Z,3.62
2023-05-05T09:54:35.537Z,3.40
2023-05-05T09:57:37.475Z,3.67
2023-05-05T10:00:39.737Z,3.60
2023-05-05T10:03:52.958Z,3.72
2023-05-05T10:06:57.139Z,3.92
2023-05-05T10:09:59.082Z,3.83
2023-05-05T10:13:01.915Z,4.20
2023-05-05T10:16:04.767Z,4.03
2023-05-05T10:19:07.099Z,3.90
2023-05-05T10:22:10.863Z,4.10
2023-05-05T10:25:16.067Z,4.50
2023-05-05T10:28:42.225Z,4.80
2023-05-05T10:31:54.330Z,4.20
2023-05-05T10:35:09.174Z,4.20
2023-05-05T10:38:13.244Z,3.70
2023-05-05T10:41:16.289Z,4.12
2023-05-05T10:44:18.416Z,4.68
2023-05-05T10:47:22.422Z,4.30
2023-05-05T10:50:24.337Z,4.30
2023-05-05T10:53:31.665Z,4.28
2023-05-05T10:56:36.153Z,4.25
2023-05-05T10:59:40.130Z,4.47
2023-05-05T11:02:42.310Z,4.27
2023-05-05T11:06:08.967Z,4.53
2023-05-05T11:09:29.773Z,4.55
2023-05-05T11:12:33.180Z,4.60
2023-05-05T11:15:37.957Z,4.57
2023-05-05T11:18:44.537Z,4.80
2023-05-05T11:22:02.544Z,4.37
2023-05-05T11:25:36.593Z,4.30
2023-05-05T11:29:08.529Z,4.10
2023-05-05T11:32:12.572Z,4.22
2023-05-05T11:35:15.619Z,3.87
2023-05-05T11:38:20.969Z,4.10
2023-05-05T11:41:51.775Z,4.12
2023-05-05T11:44:54.820Z,4.18
2023-05-05T11:48:27.160Z,3.75
2023-05-05T11:51:48.691Z,4.60
2023-05-05T11:54:51.462Z,4.10
2023-05-05T11:57:53.505Z,4.20
2023-05-05T12:00:55.608Z,4.15
2023-05-05T12:03:58.265Z,4.05
2023-05-05T12:07:00.737Z,4.17
2023-05-05T12:10:02.942Z,3.90
2023-05-05T12:13:20.114Z,4.35
2023-05-05T12:16:22.507Z,3.85
2023-05-05T12:19:30.118Z,4.40
2023-05-05T12:22:32.388Z,4.60
2023-05-05T12:25:40.678Z,3.90
2023-05-05T12:28:46.651Z,4.43
2023-05-05T12:31:49.125Z,4.40
2023-05-05T12:34:57.537Z,3.58
2023-05-05T12:38:00.008Z,3.77
2023-05-05T12:41:03.007Z,3.97
2023-05-05T12:44:05.360Z,3.83
2023-05-05T12:47:07.773Z,4.00
2023-05-05T12:50:10.509Z,4.28
2023-05-05T12:53:21.158Z,3.43
2023-05-05T12:56:33.638Z,3.72
2023-05-05T12:59:35.739Z,3.70
2023-05-05T13:02:38.006Z,3.58
2023-05-05T13:05:41.246Z,3.58
2023-05-05T13:08:43.866Z,3.77
2023-05-05T13:11:46.036Z,3.97
2023-05-05T13:14:48.489Z,3.83
2023-05-05T13:17:50.873Z,3.55
2023-05-05T13:20:52.912Z,3.92
2023-05-05T13:24:01.599Z,3.70
2023-05-05T13:27:14.204Z,3.47
2023-05-05T13:30:16.244Z,3.60
2023-05-05T13:33:18.271Z,3.45
2023-05-05T13:36:20.326Z,3.50
2023-05-05T13:39:22.818Z,3.80
2023-05-05T13:42:25.035Z,3.87
2023-05-05T13:45:26.989Z,3.92
2023-05-05T13:48:29.171Z,4.05
2023-05-05T13:51:31.241Z,3.95
2023-05-05T13:54:33.192Z,3.80
2023-05-05T13:57:35.194Z,4.15
2023-05-05T14:00:37.985Z,3.87
2023-05-05T14:03:40.145Z,4.10
2023-05-05T14:06:42.082Z,4.28
2023-05-05T14:09:44.134Z,4.07
2023-05-05T14:12:46.247Z,3.60
2023-05-05T14:15:50.368Z,3.72
2023-05-05T14:18:52.571Z,3.90
2023-05-05T14:21:54.561Z,3.95
2023-05-05T14:24:57.006Z,3.53
2023-05-05T14:27:58.970Z,4.05
2023-05-05T14:31:01.008Z,3.80
2023-05-05T14:34:03.225Z,4.00
2023-05-05T14:37:05.203Z,3.90
2023-05-05T14:40:07.838Z,3.50
2023-05-05T14:43:09.891Z,3.62
2023-05-05T14:46:12.000Z,3.55
2023-05-05T14:49:14.107Z,3.30
2023-05-05T14:52:16.076Z,3.50
2023-05-05T14:55:18.226Z,3.53
2023-05-05T14:58:22.480Z,3.30
2023-05-05T15:01:27.655Z,3.40
2023-05-05T15:04:29.752Z,3.17
2023-05-05T15:07:31.706Z,3.33
2023-05-05T15:10:33.780Z,2.90
2023-05-05T15:13:38.596Z,3.30
2023-05-05T15:16:41.062Z,3.22
2023-05-05T15:19:43.017Z,3.00
2023-05-05T15:22:45.058Z,3.78
2023-05-05T15:25:47.162Z,3.47
2023-05-05T15:28:50.420Z,2.92
2023-05-05T15:31:52.829Z,3.17
2023-05-05T15:34:56.378Z,3.28
2023-05-05T15:37:58.424Z,3.20
2023-05-05T15:41:00.560Z,3.23
2023-05-05T15:44:04.507Z,3.25
2023-05-05T15:47:11.001Z,3.10
2023-05-05T15:50:13.050Z,3.55
2023-05-05T15:53:15.084Z,3.33
2023-05-05T15:56:17.284Z,3.40
2023-05-05T15:59:19.423Z,3.33
2023-05-05T16:02:22.154Z,3.17
2023-05-05T16:05:24.144Z,3.30
2023-05-05T16:08:26.144Z,3.53
2023-05-05T16:11:28.568Z,3.50
2023-05-05T16:14:32.237Z,3.17
2023-05-05T16:17:34.299Z,3.05
2023-05-05T16:20:36.305Z,3.33
2023-05-05T16:23:38.404Z,3.83
2023-05-05T16:26:40.330Z,6.03
2023-05-05T16:29:42.209Z,3.30
2023-05-05T16:32:44.487Z,2.92
2023-05-05T16:35:46.661Z,3.05
2023-05-05T16:38:49.800Z,3.22
2023-05-05T16:41:52.585Z,2.93
2023-05-05T16:44:54.705Z,2.92
2023-05-05T16:47:56.733Z,3.20
2023-05-05T16:50:58.827Z,3.85
2023-05-05T16:54:00.942Z,3.30
2023-05-05T16:57:03.858Z,3.03
2023-05-05T17:00:07.333Z,3.45
2023-05-05T17:03:09.346Z,3.00
2023-05-05T17:06:13.079Z,3.37
2023-05-05T17:09:15.542Z,3.33
2023-05-05T17:12:17.712Z,3.30
2023-05-05T17:15:19.765Z,3.30
2023-05-05T17:18:22.830Z,3.17
2023-05-05T17:21:24.814Z,3.45
2023-05-05T17:24:26.818Z,3.72
2023-05-05T17:27:28.859Z,3.00
2023-05-05T17:30:30.949Z,3.22
2023-05-05T17:33:32.870Z,4.18
2023-05-05T17:36:35.545Z,3.30
2023-05-05T17:39:37.769Z,3.50
2023-05-05T17:42:40.635Z,3.53
2023-05-05T17:45:42.627Z,3.50
2023-05-05T17:48:45.015Z,3.37
2023-05-05T17:51:47.141Z,3.40
2023-05-05T17:54:49.863Z,3.60
2023-05-05T17:57:51.911Z,3.67
2023-05-05T18:00:53.861Z,3.55
2023-05-05T18:03:56.575Z,3.83
2023-05-05T18:06:58.550Z,4.10
2023-05-05T18:10:00.763Z,4.05
2023-05-05T18:13:02.814Z,3.37
2023-05-05T18:16:05.659Z,3.53
2023-05-05T18:19:08.215Z,3.72
2023-05-05T18:22:10.710Z,3.42
2023-05-05T18:25:12.944Z,3.22
2023-05-05T18:28:15.305Z,4.23
2023-05-05T18:31:17.479Z,4.07
2023-05-05T18:34:20.627Z,4.28
2023-05-05T18:37:22.695Z,3.90
2023-05-05T18:40:24.721Z,4.10
2023-05-05T18:43:26.856Z,5.20
2023-05-05T18:46:29.157Z,4.30
2023-05-05T18:49:31.742Z,5.10
2023-05-05T18:52:34.498Z,4.82
2023-05-05T18:55:36.877Z,5.15
2023-05-05T18:58:39.302Z,4.87
2023-05-05T19:01:43.017Z,5.32
2023-05-05T19:04:46.614Z,5.60
2023-05-05T19:07:49.070Z,5.53
2023-05-05T19:10:51.439Z,5.75
2023-05-05T19:13:53.658Z,5.13
2023-05-05T19:17:02.214Z,5.25
2023-05-05T19:20:04.704Z,5.22
2023-05-05T19:23:07.179Z,5.28
2023-05-05T19:26:10.405Z,4.75
2023-05-05T19:29:12.798Z,5.30
2023-05-05T19:32:15.082Z,5.60
2023-05-05T19:35:17.642Z,6.15
2023-05-05T19:38:19.536Z,6.80
2023-05-05T19:41:21.579Z,6.57
2023-05-05T19:44:23.895Z,6.80
2023-05-05T19:47:26.187Z,6.35
2023-05-05T19:50:30.379Z,6.75
2023-05-05T19:53:32.438Z,6.47
2023-05-05T19:56:34.438Z,6.65
2023-05-05T19:59:36.466Z,6.00
2023-05-05T20:02:38.800Z,5.78
2023-05-05T20:05:41.161Z,6.00
2023-05-05T20:08:43.145Z,6.35
2023-05-05T20:11:45.200Z,6.12
2023-05-05T20:14:47.518Z,6.40
2023-05-05T20:17:49.887Z,6.78
2023-05-05T20:20:51.898Z,6.85
2023-05-05T20:23:56.634Z,7.07
2023-05-05T20:26:58.653Z,7.43
2023-05-05T20:30:00.548Z,7.10
2023-05-05T20:33:02.655Z,7.60
2023-05-05T20:36:05.031Z,6.80
2023-05-05T20:39:08.117Z,6.12
2023-05-05T20:42:11.204Z,6.28
2023-05-05T20:45:13.457Z,6.30
2023-05-05T20:48:15.570Z,6.18
2023-05-05T20:51:17.500Z,6.32
2023-05-05T20:54:19.499Z,6.45
2023-05-05T20:57:21.743Z,5.80
2023-05-05T21:00:24.267Z,6.37
2023-05-05T21:03:26.327Z,6.15
2023-05-05T21:06:28.353Z,5.90
2023-05-05T21:09:31.652Z,6.15
2023-05-05T21:12:34.633Z,6.20
2023-05-05T21:15:37.612Z,6.07
2023-05-05T21:18:39.850Z,5.70
2023-05-05T21:21:41.824Z,5.10
2023-05-05T21:24:44.071Z,6.30
2023-05-05T21:27:48.032Z,5.82
2023-05-05T21:31:10.261Z,5.67
2023-05-05T21:34:13.585Z,5.70
2023-05-05T21:37:15.791Z,5.85
2023-05-05T21:40:23.008Z,6.12
2023-05-05T21:43:30.644Z,5.78
2023-05-05T21:46:32.805Z,5.90
2023-05-05T21:49:34.845Z,5.65
2023-05-05T21:52:36.928Z,6.15
2023-05-05T21:55:38.986Z,5.87
2023-05-05T21:58:41.614Z,6.55
2023-05-05T22:01:43.827Z,6.00
2023-05-05T22:04:48.801Z,6.28
2023-05-05T22:07:50.840Z,5.78
2023-05-05T22:10:52.890Z,6.32
2023-05-05T22:13:56.098Z,5.80
2023-05-05T22:16:58.130Z,5.97
2023-05-05T22:20:00.081Z,5.37
2023-05-05T22:23:02.052Z,6.10
2023-05-05T22:26:04.973Z,5.95
2023-05-05T22:29:07.063Z,5.17
2023-05-05T22:32:09.135Z,5.70
2023-05-05T22:35:11.290Z,6.05
2023-05-05T22:38:13.589Z,5.47
2023-05-05T22:41:16.136Z,5.93
2023-05-05T22:44:18.103Z,6.37
2023-05-05T22:47:20.133Z,5.47
2023-05-05T22:50:22.318Z,5.32
2023-05-05T22:53:24.535Z,4.87
2023-05-05T22:56:26.706Z,5.95
2023-05-05T22:59:28.655Z,6.03
2023-05-05T23:02:30.692Z,5.63
2023-05-05T23:05:34.465Z,5.43
2023-05-05T23:08:36.475Z,5.72
2023-05-05T23:11:38.615Z,5.87
2023-05-05T23:14:40.642Z,5.68
2023-05-05T23:17:42.666Z,5.10
2023-05-05T23:20:44.669Z,5.30
2023-05-05T23:23:48.533Z,5.37
2023-05-05T23:26:51.989Z,5.47
2023-05-05T23:29:53.905Z,5.80
2023-05-05T23:32:57.561Z,5.23
2023-05-05T23:35:59.615Z,5.68
2023-05-05T23:39:01.775Z,5.25
2023-05-05T23:42:03.785Z,5.53
2023-05-05T23:45:06.513Z,5.37
2023-05-05T23:48:08.800Z,5.10
2023-05-05T23:51:10.873Z,5.47
2023-05-05T23:54:12.783Z,5.25
2023-05-05T23:57:14.956Z,5.72
